sensor_id;sensor_type;location;lat;lon;timestamp;pressure;altitude;pressure_sealevel;temperature;humidity
60019;BME280;45870;42.528;26.740;2023-09-19T00:01:28;100057.41;;;21.90;44.73
60019;BME280;45870;42.528;26.740;2023-09-19T00:03:56;100051.44;;;21.83;44.91
60019;BME280;45870;42.528;26.740;2023-09-19T00:06:23;100063.38;;;22.11;45.18
60019;BME280;45870;42.528;26.740;2023-09-19T00:08:51;100057.38;;;22.55;44.07
60019;BME280;45870;42.528;26.740;2023-09-19T00:11:17;100024.59;;;22.13;44.22
60019;BME280;45870;42.528;26.740;2023-09-19T00:13:42;100053.59;;;22.51;43.94
60019;BME280;45870;42.528;26.740;2023-09-19T00:16:10;100054.69;;;22.50;43.98
60019;BME280;45870;42.528;26.740;2023-09-19T00:18:37;100038.41;;;22.40;43.67
60019;BME280;45870;42.528;26.740;2023-09-19T00:21:03;100048.97;;;22.33;43.33
60019;BME280;45870;42.528;26.740;2023-09-19T00:23:32;100042.53;;;22.24;43.43
60019;BME280;45870;42.528;26.740;2023-09-19T00:25:59;100021.59;;;21.77;43.40
60019;BME280;45870;42.528;26.740;2023-09-19T00:28:25;100010.84;;;21.62;43.44
60019;BME280;45870;42.528;26.740;2023-09-19T00:30:51;100043.59;;;21.77;43.92
60019;BME280;45870;42.528;26.740;2023-09-19T00:33:18;100049.91;;;21.77;43.66
60019;BME280;45870;42.528;26.740;2023-09-19T00:38:14;100037.13;;;21.68;43.61
60019;BME280;45870;42.528;26.740;2023-09-19T00:40:45;100044.63;;;21.62;43.41
60019;BME280;45870;42.528;26.740;2023-09-19T00:43:11;100034.59;;;21.15;44.67
60019;BME280;45870;42.528;26.740;2023-09-19T00:45:38;100032.59;;;21.39;44.04
60019;BME280;45870;42.528;26.740;2023-09-19T00:48:05;100039.88;;;21.68;44.00
60019;BME280;45870;42.528;26.740;2023-09-19T00:50:35;100037.44;;;21.48;44.14
60019;BME280;45870;42.528;26.740;2023-09-19T00:53:01;100006.94;;;20.88;45.17
60019;BME280;45870;42.528;26.740;2023-09-19T00:55:29;100035.00;;;21.27;44.39
60019;BME280;45870;42.528;26.740;2023-09-19T00:57:55;100035.31;;;21.02;45.01
60019;BME280;45870;42.528;26.740;2023-09-19T01:00:22;100004.38;;;20.97;44.44
60019;BME280;45870;42.528;26.740;2023-09-19T01:02:49;100030.91;;;20.82;45.17
60019;BME280;45870;42.528;26.740;2023-09-19T01:05:14;99980.16;;;20.80;44.36
60019;BME280;45870;42.528;26.740;2023-09-19T01:07:41;99984.34;;;20.96;44.07
60019;BME280;45870;42.528;26.740;2023-09-19T01:10:11;99988.16;;;21.00;44.42
60019;BME280;45870;42.528;26.740;2023-09-19T01:13:21;100045.66;;;21.10;44.40
60019;BME280;45870;42.528;26.740;2023-09-19T01:18:52;100054.97;;;21.09;45.12
60019;BME280;45870;42.528;26.740;2023-09-19T01:29:33;100058.44;;;21.57;44.69
60019;BME280;45870;42.528;26.740;2023-09-19T01:32:04;100045.41;;;21.81;44.58
60019;BME280;45870;42.528;26.740;2023-09-19T01:37:16;100062.66;;;21.87;44.76
60019;BME280;45870;42.528;26.740;2023-09-19T01:39:47;100061.31;;;22.35;43.56
60019;BME280;45870;42.528;26.740;2023-09-19T01:42:27;100066.00;;;22.03;44.81
60019;BME280;45870;42.528;26.740;2023-09-19T01:47:29;100051.44;;;22.48;43.87
60019;BME280;45870;42.528;26.740;2023-09-19T01:52:34;100053.47;;;22.56;43.84
60019;BME280;45870;42.528;26.740;2023-09-19T01:55:07;100053.47;;;22.56;43.08
60019;BME280;45870;42.528;26.740;2023-09-19T01:57:54;100056.56;;;22.55;43.03
60019;BME280;45870;42.528;26.740;2023-09-19T02:00:26;100059.19;;;22.60;43.11
60019;BME280;45870;42.528;26.740;2023-09-19T02:02:53;100052.19;;;22.67;42.54
60019;BME280;45870;42.528;26.740;2023-09-19T02:05:24;100062.69;;;22.65;42.99
60019;BME280;45870;42.528;26.740;2023-09-19T02:07:51;100058.69;;;22.44;43.30
60019;BME280;45870;42.528;26.740;2023-09-19T02:10:18;100059.72;;;22.48;42.89
60019;BME280;45870;42.528;26.740;2023-09-19T02:12:44;100055.31;;;22.61;42.53
60019;BME280;45870;42.528;26.740;2023-09-19T02:15:10;100056.91;;;22.34;43.11
60019;BME280;45870;42.528;26.740;2023-09-19T02:17:36;100053.03;;;22.35;43.13
60019;BME280;45870;42.528;26.740;2023-09-19T02:20:02;100009.47;;;21.97;43.12
60019;BME280;45870;42.528;26.740;2023-09-19T02:22:29;100030.25;;;22.03;43.21
60019;BME280;45870;42.528;26.740;2023-09-19T02:24:55;100050.00;;;21.91;43.44
60019;BME280;45870;42.528;26.740;2023-09-19T02:27:23;100040.31;;;21.94;43.49
60019;BME280;45870;42.528;26.740;2023-09-19T02:29:49;100041.22;;;21.70;43.86
60019;BME280;45870;42.528;26.740;2023-09-19T02:32:15;100043.06;;;21.75;43.47
60019;BME280;45870;42.528;26.740;2023-09-19T02:34:43;100048.00;;;21.59;43.96
60019;BME280;45870;42.528;26.740;2023-09-19T02:37:10;100041.50;;;21.50;44.07
60019;BME280;45870;42.528;26.740;2023-09-19T02:39:35;99972.69;;;21.04;44.39
60019;BME280;45870;42.528;26.740;2023-09-19T02:42:01;100045.63;;;21.53;43.83
60019;BME280;45870;42.528;26.740;2023-09-19T02:44:29;100043.81;;;21.80;43.80
60019;BME280;45870;42.528;26.740;2023-09-19T02:46:55;100037.72;;;21.65;43.70
60019;BME280;45870;42.528;26.740;2023-09-19T02:49:22;99997.50;;;21.36;44.08
60019;BME280;45870;42.528;26.740;2023-09-19T02:51:48;100020.41;;;21.64;43.69
60019;BME280;45870;42.528;26.740;2023-09-19T02:54:14;100010.19;;;21.51;44.11
60019;BME280;45870;42.528;26.740;2023-09-19T02:56:41;100018.09;;;21.39;44.49
60019;BME280;45870;42.528;26.740;2023-09-19T02:59:07;100019.25;;;21.52;44.13
60019;BME280;45870;42.528;26.740;2023-09-19T03:01:35;100026.56;;;21.42;44.65
60019;BME280;45870;42.528;26.740;2023-09-19T03:04:03;100025.44;;;21.25;45.11
60019;BME280;45870;42.528;26.740;2023-09-19T03:06:31;100019.31;;;21.47;44.30
60019;BME280;45870;42.528;26.740;2023-09-19T03:08:57;100022.81;;;21.33;44.50
60019;BME280;45870;42.528;26.740;2023-09-19T03:11:25;100018.66;;;21.36;44.67
60019;BME280;45870;42.528;26.740;2023-09-19T03:13:54;100011.03;;;21.14;45.41
60019;BME280;45870;42.528;26.740;2023-09-19T03:16:20;99936.50;;;20.83;44.91
60019;BME280;45870;42.528;26.740;2023-09-19T03:18:51;99993.22;;;21.49;44.06
60019;BME280;45870;42.528;26.740;2023-09-19T03:21:17;100016.34;;;21.43;44.39
60019;BME280;45870;42.528;26.740;2023-09-19T03:23:44;100012.50;;;21.25;45.22
60019;BME280;45870;42.528;26.740;2023-09-19T03:26:12;100002.13;;;21.41;44.71
60019;BME280;45870;42.528;26.740;2023-09-19T03:28:38;100001.38;;;21.35;44.74
60019;BME280;45870;42.528;26.740;2023-09-19T03:31:07;99996.78;;;21.12;45.18
60019;BME280;45870;42.528;26.740;2023-09-19T03:33:33;99989.38;;;21.08;45.28
60019;BME280;45870;42.528;26.740;2023-09-19T03:36:00;99995.94;;;21.12;44.96
60019;BME280;45870;42.528;26.740;2023-09-19T03:38:26;99938.22;;;20.98;44.67
60019;BME280;45870;42.528;26.740;2023-09-19T03:40:53;99991.03;;;21.09;44.90
60019;BME280;45870;42.528;26.740;2023-09-19T03:43:19;99978.88;;;20.96;45.21
60019;BME280;45870;42.528;26.740;2023-09-19T03:45:44;99995.56;;;21.18;45.03
60019;BME280;45870;42.528;26.740;2023-09-19T03:48:12;99993.81;;;21.27;44.77
60019;BME280;45870;42.528;26.740;2023-09-19T03:50:38;99985.47;;;21.32;44.94
60019;BME280;45870;42.528;26.740;2023-09-19T03:53:04;99981.41;;;21.30;45.07
60019;BME280;45870;42.528;26.740;2023-09-19T03:55:32;99980.59;;;21.29;44.73
60019;BME280;45870;42.528;26.740;2023-09-19T03:57:57;99985.84;;;21.26;45.06
60019;BME280;45870;42.528;26.740;2023-09-19T04:00:23;99920.31;;;21.01;44.47
60019;BME280;45870;42.528;26.740;2023-09-19T04:02:52;99983.19;;;21.39;45.01
60019;BME280;45870;42.528;26.740;2023-09-19T04:05:18;99978.78;;;21.01;45.63
60019;BME280;45870;42.528;26.740;2023-09-19T04:07:44;99980.69;;;21.24;44.98
60019;BME280;45870;42.528;26.740;2023-09-19T04:10:10;99874.66;;;20.54;45.10
60019;BME280;45870;42.528;26.740;2023-09-19T04:12:40;99943.22;;;20.72;45.88
60019;BME280;45870;42.528;26.740;2023-09-19T04:15:06;99997.13;;;18.10;54.54
60019;BME280;45870;42.528;26.740;2023-09-19T04:17:32;99996.97;;;20.55;48.36
60019;BME280;45870;42.528;26.740;2023-09-19T04:19:59;99992.56;;;21.38;46.00
60019;BME280;45870;42.528;26.740;2023-09-19T04:22:25;99986.81;;;21.86;44.36
60019;BME280;45870;42.528;26.740;2023-09-19T04:24:51;99992.00;;;21.36;45.03
60019;BME280;45870;42.528;26.740;2023-09-19T04:27:16;99996.06;;;20.35;47.72
60019;BME280;45870;42.528;26.740;2023-09-19T04:29:44;99978.50;;;21.40;45.17
60019;BME280;45870;42.528;26.740;2023-09-19T04:32:10;99958.16;;;20.14;47.34
60019;BME280;45870;42.528;26.740;2023-09-19T04:34:36;99865.00;;;18.99;48.68
60019;BME280;45870;42.528;26.740;2023-09-19T04:37:03;100005.63;;;19.80;49.65
60019;BME280;45870;42.528;26.740;2023-09-19T04:39:29;100021.63;;;21.39;45.94
60019;BME280;45870;42.528;26.740;2023-09-19T04:41:55;99999.59;;;19.39;50.42
60019;BME280;45870;42.528;26.740;2023-09-19T04:44:20;100012.56;;;20.02;49.72
60019;BME280;45870;42.528;26.740;2023-09-19T04:46:47;100013.75;;;21.70;45.93
60019;BME280;45870;42.528;26.740;2023-09-19T04:49:13;100012.88;;;21.56;45.96
60019;BME280;45870;42.528;26.740;2023-09-19T04:51:39;100012.88;;;21.56;46.98
60019;BME280;45870;42.528;26.740;2023-09-19T04:54:06;100009.06;;;21.71;46.20
60019;BME280;45870;42.528;26.740;2023-09-19T04:56:32;99931.50;;;21.92;45.70
60019;BME280;45870;42.528;26.740;2023-09-19T04:58:59;99867.94;;;22.49;43.68
60019;BME280;45870;42.528;26.740;2023-09-19T05:01:25;100008.78;;;23.41;42.73
60019;BME280;45870;42.528;26.740;2023-09-19T05:03:51;99991.72;;;23.75;43.36
60019;BME280;45870;42.528;26.740;2023-09-19T05:06:21;100026.50;;;22.45;45.00
60019;BME280;45870;42.528;26.740;2023-09-19T05:08:50;100005.78;;;24.49;41.12
60019;BME280;45870;42.528;26.740;2023-09-19T05:11:19;100015.38;;;24.51;40.80
60019;BME280;45870;42.528;26.740;2023-09-19T05:13:45;100020.97;;;23.84;41.88
60019;BME280;45870;42.528;26.740;2023-09-19T05:16:10;100013.31;;;24.65;39.90
60019;BME280;45870;42.528;26.740;2023-09-19T05:18:36;100014.63;;;23.62;42.01
60019;BME280;45870;42.528;26.740;2023-09-19T05:21:02;99972.81;;;24.83;39.86
60019;BME280;45870;42.528;26.740;2023-09-19T05:23:28;99989.13;;;25.79;38.34
60019;BME280;45870;42.528;26.740;2023-09-19T05:25:54;100012.72;;;26.87;36.61
60019;BME280;45870;42.528;26.740;2023-09-19T05:28:22;100007.78;;;25.13;39.78
60019;BME280;45870;42.528;26.740;2023-09-19T05:30:48;100013.19;;;25.96;37.34
60019;BME280;45870;42.528;26.740;2023-09-19T05:33:14;99899.06;;;23.65;41.28
60019;BME280;45870;42.528;26.740;2023-09-19T05:35:40;100019.53;;;24.79;40.46
60019;BME280;45870;42.528;26.740;2023-09-19T05:38:07;100018.50;;;24.67;40.65
60019;BME280;45870;42.528;26.740;2023-09-19T05:40:38;100036.28;;;25.74;38.64
60019;BME280;45870;42.528;26.740;2023-09-19T05:43:07;100040.81;;;25.35;39.55
60019;BME280;45870;42.528;26.740;2023-09-19T05:45:33;100032.63;;;27.09;36.31
60019;BME280;45870;42.528;26.740;2023-09-19T05:48:08;100003.81;;;26.35;37.13
60019;BME280;45870;42.528;26.740;2023-09-19T05:50:34;100043.09;;;26.19;36.93
60019;BME280;45870;42.528;26.740;2023-09-19T05:53:00;100035.31;;;24.88;39.98
60019;BME280;45870;42.528;26.740;2023-09-19T05:55:25;100039.03;;;25.40;38.69
60019;BME280;45870;42.528;26.740;2023-09-19T05:57:52;100038.19;;;26.71;36.80
60019;BME280;45870;42.528;26.740;2023-09-19T06:00:20;100041.47;;;25.32;38.85
60019;BME280;45870;42.528;26.740;2023-09-19T06:02:55;100057.56;;;25.39;39.13
60019;BME280;45870;42.528;26.740;2023-09-19T06:05:24;100035.41;;;25.13;38.64
60019;BME280;45870;42.528;26.740;2023-09-19T06:07:50;100013.84;;;25.58;38.04
60019;BME280;45870;42.528;26.740;2023-09-19T06:10:17;100035.13;;;26.01;37.94
60019;BME280;45870;42.528;26.740;2023-09-19T06:12:43;100034.00;;;25.76;38.74
60019;BME280;45870;42.528;26.740;2023-09-19T06:15:15;100039.28;;;28.77;33.33
60019;BME280;45870;42.528;26.740;2023-09-19T06:17:48;100025.63;;;29.61;31.68
60019;BME280;45870;42.528;26.740;2023-09-19T06:20:15;100040.75;;;28.75;33.19
60019;BME280;45870;42.528;26.740;2023-09-19T06:22:43;100043.97;;;26.96;35.64
60019;BME280;45870;42.528;26.740;2023-09-19T06:25:10;100000.84;;;25.59;37.89
60019;BME280;45870;42.528;26.740;2023-09-19T06:27:52;100036.00;;;27.86;34.35
60019;BME280;45870;42.528;26.740;2023-09-19T06:30:19;100024.06;;;29.75;31.26
60019;BME280;45870;42.528;26.740;2023-09-19T06:32:45;100039.41;;;29.69;32.05
60019;BME280;45870;42.528;26.740;2023-09-19T06:35:12;100035.25;;;31.29;29.40
60019;BME280;45870;42.528;26.740;2023-09-19T06:37:39;100000.31;;;26.55;36.27
60019;BME280;45870;42.528;26.740;2023-09-19T06:40:10;99983.75;;;26.84;36.40
60019;BME280;45870;42.528;26.740;2023-09-19T06:42:49;100027.78;;;29.27;33.05
60019;BME280;45870;42.528;26.740;2023-09-19T06:45:16;100035.78;;;27.28;36.29
60019;BME280;45870;42.528;26.740;2023-09-19T06:47:46;99999.34;;;29.86;32.30
60019;BME280;45870;42.528;26.740;2023-09-19T06:50:16;100040.75;;;29.48;32.36
60019;BME280;45870;42.528;26.740;2023-09-19T06:52:45;100042.59;;;29.32;32.95
60019;BME280;45870;42.528;26.740;2023-09-19T06:55:12;99988.16;;;29.18;32.35
60019;BME280;45870;42.528;26.740;2023-09-19T06:57:39;99993.41;;;31.09;29.06
60019;BME280;45870;42.528;26.740;2023-09-19T07:00:06;100014.31;;;31.54;29.17
60019;BME280;45870;42.528;26.740;2023-09-19T07:02:42;100045.84;;;33.26;26.59
60019;BME280;45870;42.528;26.740;2023-09-19T07:05:08;100037.41;;;32.08;28.53
60019;BME280;45870;42.528;26.740;2023-09-19T07:07:36;99994.00;;;33.32;26.20
60019;BME280;45870;42.528;26.740;2023-09-19T07:10:03;100054.34;;;34.22;25.62
60019;BME280;45870;42.528;26.740;2023-09-19T07:12:31;100018.63;;;33.82;25.64
60019;BME280;45870;42.528;26.740;2023-09-19T07:14:58;100047.81;;;37.25;21.74
60019;BME280;45870;42.528;26.740;2023-09-19T07:17:24;100004.25;;;34.57;25.36
60019;BME280;45870;42.528;26.740;2023-09-19T07:19:49;100043.50;;;34.61;24.96
60019;BME280;45870;42.528;26.740;2023-09-19T07:22:16;100036.13;;;35.37;24.62
60019;BME280;45870;42.528;26.740;2023-09-19T07:24:41;100041.09;;;35.62;24.17
60019;BME280;45870;42.528;26.740;2023-09-19T07:27:08;100040.56;;;36.42;23.40
60019;BME280;45870;42.528;26.740;2023-09-19T07:29:34;100043.47;;;35.01;25.07
60019;BME280;45870;42.528;26.740;2023-09-19T07:32:00;100043.84;;;36.62;22.90
60019;BME280;45870;42.528;26.740;2023-09-19T07:34:25;100031.69;;;34.78;25.85
60019;BME280;45870;42.528;26.740;2023-09-19T07:36:51;100034.41;;;36.01;23.81
60019;BME280;45870;42.528;26.740;2023-09-19T07:39:17;100030.81;;;36.01;24.28
60019;BME280;45870;42.528;26.740;2023-09-19T07:41:42;100025.19;;;30.14;32.25
60019;BME280;45870;42.528;26.740;2023-09-19T07:44:08;100025.44;;;34.15;26.67
60019;BME280;45870;42.528;26.740;2023-09-19T07:46:35;99989.69;;;34.89;25.46
60019;BME280;45870;42.528;26.740;2023-09-19T07:49:01;100017.00;;;34.51;27.33
60019;BME280;45870;42.528;26.740;2023-09-19T07:51:27;100006.78;;;36.18;24.86
60019;BME280;45870;42.528;26.740;2023-09-19T07:53:55;100016.31;;;35.85;24.68
60019;BME280;45870;42.528;26.740;2023-09-19T07:56:20;100007.78;;;34.98;25.80
60019;BME280;45870;42.528;26.740;2023-09-19T07:58:48;99959.47;;;33.21;28.95
60019;BME280;45870;42.528;26.740;2023-09-19T08:01:13;99999.81;;;33.79;28.01
60019;BME280;45870;42.528;26.740;2023-09-19T08:03:40;100001.53;;;37.50;23.52
60019;BME280;45870;42.528;26.740;2023-09-19T08:06:07;99939.22;;;39.40;20.55
60019;BME280;45870;42.528;26.740;2023-09-19T08:08:33;100008.47;;;36.75;23.87
60019;BME280;45870;42.528;26.740;2023-09-19T08:11:06;100006.75;;;39.28;21.15
60019;BME280;45870;42.528;26.740;2023-09-19T08:13:41;99997.78;;;40.54;20.12
60019;BME280;45870;42.528;26.740;2023-09-19T08:16:12;99969.59;;;35.48;25.15
60019;BME280;45870;42.528;26.740;2023-09-19T08:18:40;99997.72;;;34.46;26.69
60019;BME280;45870;42.528;26.740;2023-09-19T08:21:07;99997.31;;;33.14;29.33
60019;BME280;45870;42.528;26.740;2023-09-19T08:23:36;99988.47;;;35.51;25.02
60019;BME280;45870;42.528;26.740;2023-09-19T08:26:01;99988.00;;;35.39;25.61
60019;BME280;45870;42.528;26.740;2023-09-19T08:28:33;99998.78;;;36.41;24.44
60019;BME280;45870;42.528;26.740;2023-09-19T08:31:06;99978.28;;;35.22;25.39
60019;BME280;45870;42.528;26.740;2023-09-19T08:33:36;99993.84;;;34.18;26.19
60019;BME280;45870;42.528;26.740;2023-09-19T08:36:03;99946.78;;;34.85;25.10
60019;BME280;45870;42.528;26.740;2023-09-19T08:38:34;99977.91;;;36.81;23.11
60019;BME280;45870;42.528;26.740;2023-09-19T08:41:00;99981.09;;;37.15;22.54
60019;BME280;45870;42.528;26.740;2023-09-19T08:43:30;99975.56;;;33.31;26.72
60019;BME280;45870;42.528;26.740;2023-09-19T08:46:15;99971.38;;;33.14;27.02
60019;BME280;45870;42.528;26.740;2023-09-19T08:49:03;99962.94;;;33.74;25.29
60019;BME280;45870;42.528;26.740;2023-09-19T08:51:41;99957.94;;;33.93;25.59
60019;BME280;45870;42.528;26.740;2023-09-19T08:54:25;99952.16;;;35.11;24.75
60019;BME280;45870;42.528;26.740;2023-09-19T08:56:56;99960.03;;;32.81;27.12
60019;BME280;45870;42.528;26.740;2023-09-19T08:59:25;99949.41;;;31.99;26.43
60019;BME280;45870;42.528;26.740;2023-09-19T09:01:55;99943.81;;;33.79;24.98
60019;BME280;45870;42.528;26.740;2023-09-19T09:04:22;99945.03;;;33.19;26.34
60019;BME280;45870;42.528;26.740;2023-09-19T09:06:50;99943.44;;;32.19;27.29
60019;BME280;45870;42.528;26.740;2023-09-19T09:09:20;99944.81;;;30.60;28.94
60019;BME280;45870;42.528;26.740;2023-09-19T09:11:48;99944.50;;;29.59;30.72
60019;BME280;45870;42.528;26.740;2023-09-19T09:14:15;99932.94;;;30.16;29.97
60019;BME280;45870;42.528;26.740;2023-09-19T09:16:41;99922.19;;;30.96;29.18
60019;BME280;45870;42.528;26.740;2023-09-19T09:19:07;99913.91;;;30.34;30.52
60019;BME280;45870;42.528;26.740;2023-09-19T09:21:33;99923.50;;;31.98;28.55
60019;BME280;45870;42.528;26.740;2023-09-19T09:24:26;99915.00;;;32.59;27.33
60019;BME280;45870;42.528;26.740;2023-09-19T09:26:53;99919.88;;;32.92;27.14
60019;BME280;45870;42.528;26.740;2023-09-19T09:29:42;99917.69;;;32.07;27.86
60019;BME280;45870;42.528;26.740;2023-09-19T09:34:49;99912.38;;;31.21;29.36
60019;BME280;45870;42.528;26.740;2023-09-19T09:37:16;99903.25;;;32.77;26.73
60019;BME280;45870;42.528;26.740;2023-09-19T09:39:56;99900.06;;;31.61;27.23
60019;BME280;45870;42.528;26.740;2023-09-19T09:42:33;99907.91;;;31.97;27.86
60019;BME280;45870;42.528;26.740;2023-09-19T09:45:20;99854.94;;;31.78;26.82
60019;BME280;45870;42.528;26.740;2023-09-19T09:47:58;99877.06;;;31.67;29.93
60019;BME280;45870;42.528;26.740;2023-09-19T09:50:46;99877.63;;;33.01;26.80
60019;BME280;45870;42.528;26.740;2023-09-19T09:53:26;99882.34;;;33.23;26.98
60019;BME280;45870;42.528;26.740;2023-09-19T09:56:08;99888.94;;;32.06;27.54
60019;BME280;45870;42.528;26.740;2023-09-19T09:58:49;99854.06;;;31.13;28.36
60019;BME280;45870;42.528;26.740;2023-09-19T10:01:16;99726.31;;;30.42;29.33
60019;BME280;45870;42.528;26.740;2023-09-19T10:03:43;99873.06;;;33.15;26.75
60019;BME280;45870;42.528;26.740;2023-09-19T10:06:15;99830.13;;;32.71;27.42
60019;BME280;45870;42.528;26.740;2023-09-19T10:09:08;99785.50;;;31.31;28.47
60019;BME280;45870;42.528;26.740;2023-09-19T10:11:44;99864.13;;;32.50;27.83
60019;BME280;45870;42.528;26.740;2023-09-19T10:14:15;99866.06;;;33.66;26.58
60019;BME280;45870;42.528;26.740;2023-09-19T10:16:48;99869.44;;;34.87;24.51
60019;BME280;45870;42.528;26.740;2023-09-19T10:19:23;99866.78;;;33.59;24.62
60019;BME280;45870;42.528;26.740;2023-09-19T10:21:50;99864.59;;;34.19;24.63
60019;BME280;45870;42.528;26.740;2023-09-19T10:24:17;99872.84;;;33.64;25.16
60019;BME280;45870;42.528;26.740;2023-09-19T10:26:45;99858.19;;;33.41;25.29
60019;BME280;45870;42.528;26.740;2023-09-19T10:29:13;99862.25;;;32.09;27.84
60019;BME280;45870;42.528;26.740;2023-09-19T10:31:42;99831.31;;;33.33;26.10
60019;BME280;45870;42.528;26.740;2023-09-19T10:34:14;99855.84;;;34.89;24.57
60019;BME280;45870;42.528;26.740;2023-09-19T10:36:44;99823.94;;;32.32;25.65
60019;BME280;45870;42.528;26.740;2023-09-19T10:39:12;99854.78;;;31.71;27.11
60019;BME280;45870;42.528;26.740;2023-09-19T10:41:39;99853.38;;;32.26;25.74
60019;BME280;45870;42.528;26.740;2023-09-19T10:44:05;99836.66;;;33.12;24.49
60019;BME280;45870;42.528;26.740;2023-09-19T10:46:32;99811.50;;;31.58;26.72
60019;BME280;45870;42.528;26.740;2023-09-19T10:49:02;99778.31;;;32.51;26.38
60019;BME280;45870;42.528;26.740;2023-09-19T10:51:40;99765.94;;;30.89;27.39
60019;BME280;45870;42.528;26.740;2023-09-19T10:54:11;99820.91;;;33.34;25.44
60019;BME280;45870;42.528;26.740;2023-09-19T10:56:42;99827.25;;;32.41;25.35
60019;BME280;45870;42.528;26.740;2023-09-19T10:59:18;99810.16;;;33.39;24.49
60019;BME280;45870;42.528;26.740;2023-09-19T11:01:49;99814.44;;;35.80;22.25
60019;BME280;45870;42.528;26.740;2023-09-19T11:04:28;99811.47;;;35.13;24.07
60019;BME280;45870;42.528;26.740;2023-09-19T11:07:06;99757.88;;;35.92;22.01
60019;BME280;45870;42.528;26.740;2023-09-19T11:09:49;99807.28;;;34.71;23.11
60019;BME280;45870;42.528;26.740;2023-09-19T11:15:02;99786.66;;;33.84;24.55
60019;BME280;45870;42.528;26.740;2023-09-19T11:17:35;99789.72;;;34.16;23.68
60019;BME280;45870;42.528;26.740;2023-09-19T11:30:35;99762.72;;;33.94;24.39
60019;BME280;45870;42.528;26.740;2023-09-19T11:36:14;99774.44;;;34.68;24.07
60019;BME280;45870;42.528;26.740;2023-09-19T11:46:27;99763.84;;;35.55;23.07
60019;BME280;45870;42.528;26.740;2023-09-19T11:48:54;99747.81;;;36.26;21.11
60019;BME280;45870;42.528;26.740;2023-09-19T11:51:23;99751.63;;;34.84;23.31
60019;BME280;45870;42.528;26.740;2023-09-19T11:53:55;99763.94;;;33.12;24.84
60019;BME280;45870;42.528;26.740;2023-09-19T11:56:22;99745.88;;;31.90;27.09
60019;BME280;45870;42.528;26.740;2023-09-19T11:58:50;99733.53;;;32.77;25.56
60019;BME280;45870;42.528;26.740;2023-09-19T12:01:23;99753.75;;;32.37;26.53
60019;BME280;45870;42.528;26.740;2023-09-19T12:03:53;99762.91;;;31.40;27.56
60019;BME280;45870;42.528;26.740;2023-09-19T12:06:20;99755.88;;;32.44;26.28
60019;BME280;45870;42.528;26.740;2023-09-19T12:08:47;99750.19;;;32.66;25.39
60019;BME280;45870;42.528;26.740;2023-09-19T12:11:15;99750.47;;;34.13;22.69
60019;BME280;45870;42.528;26.740;2023-09-19T12:13:43;99700.28;;;33.93;22.31
60019;BME280;45870;42.528;26.740;2023-09-19T12:16:20;99729.03;;;34.45;21.63
60019;BME280;45870;42.528;26.740;2023-09-19T12:18:50;99713.69;;;34.21;22.91
60019;BME280;45870;42.528;26.740;2023-09-19T12:21:23;99724.56;;;32.94;23.91
60019;BME280;45870;42.528;26.740;2023-09-19T12:26:30;99727.09;;;33.91;24.06
60019;BME280;45870;42.528;26.740;2023-09-19T12:28:59;99734.16;;;35.50;22.13
60019;BME280;45870;42.528;26.740;2023-09-19T12:31:27;99717.41;;;36.97;20.29
60019;BME280;45870;42.528;26.740;2023-09-19T12:33:54;99712.84;;;35.00;22.64
60019;BME280;45870;42.528;26.740;2023-09-19T12:36:22;99731.34;;;35.29;21.83
60019;BME280;45870;42.528;26.740;2023-09-19T12:38:55;99719.34;;;35.53;21.33
60019;BME280;45870;42.528;26.740;2023-09-19T12:41:21;99718.16;;;35.69;21.63
60019;BME280;45870;42.528;26.740;2023-09-19T12:43:48;99709.94;;;36.66;20.84
60019;BME280;45870;42.528;26.740;2023-09-19T12:46:14;99718.78;;;34.81;23.09
60019;BME280;45870;42.528;26.740;2023-09-19T12:48:40;99664.19;;;33.30;23.58
60019;BME280;45870;42.528;26.740;2023-09-19T12:51:12;99704.91;;;35.62;22.02
60019;BME280;45870;42.528;26.740;2023-09-19T12:53:40;99712.63;;;36.91;20.11
60019;BME280;45870;42.528;26.740;2023-09-19T12:56:08;99705.41;;;33.81;23.77
60019;BME280;45870;42.528;26.740;2023-09-19T13:01:16;99662.78;;;35.16;22.52
60019;BME280;45870;42.528;26.740;2023-09-19T13:03:42;99700.38;;;36.39;20.91
60019;BME280;45870;42.528;26.740;2023-09-19T13:06:08;99707.66;;;37.71;18.86
60019;BME280;45870;42.528;26.740;2023-09-19T13:08:37;99683.31;;;37.88;19.56
60019;BME280;45870;42.528;26.740;2023-09-19T13:13:33;99702.03;;;38.12;20.09
60019;BME280;45870;42.528;26.740;2023-09-19T13:16:00;99698.03;;;37.14;21.55
60019;BME280;45870;42.528;26.740;2023-09-19T13:18:27;99701.91;;;36.54;21.64
60019;BME280;45870;42.528;26.740;2023-09-19T13:21:06;99696.44;;;33.61;25.89
60019;BME280;45870;42.528;26.740;2023-09-19T13:23:35;99695.84;;;33.85;26.05
60019;BME280;45870;42.528;26.740;2023-09-19T13:26:02;99687.63;;;36.10;23.29
60019;BME280;45870;42.528;26.740;2023-09-19T13:28:29;99689.56;;;36.34;22.97
60019;BME280;45870;42.528;26.740;2023-09-19T13:30:55;99686.75;;;37.14;21.98
60019;BME280;45870;42.528;26.740;2023-09-19T13:33:22;99681.56;;;37.12;21.31
60019;BME280;45870;42.528;26.740;2023-09-19T13:35:48;99680.75;;;38.04;21.07
60019;BME280;45870;42.528;26.740;2023-09-19T13:38:14;99680.84;;;35.68;23.51
60019;BME280;45870;42.528;26.740;2023-09-19T13:40:40;99662.22;;;34.61;23.94
60019;BME280;45870;42.528;26.740;2023-09-19T13:43:07;99694.38;;;34.95;23.77
60019;BME280;45870;42.528;26.740;2023-09-19T13:45:33;99691.28;;;35.43;23.63
60019;BME280;45870;42.528;26.740;2023-09-19T13:47:59;99687.56;;;36.34;22.73
60019;BME280;45870;42.528;26.740;2023-09-19T13:50:25;99681.91;;;37.18;21.27